Bangkok Bridge — 3FTZ8 — position and weather

sailwx.info

Track history (hours):
 
Tides and Currents Weather Stations Pressure Air Temp Water Temp Dewpoint Dewpoint Depression Visibility Wind Speed Wind Dir Waves Ship Positions

Bangkok Bridge

Last reported at 2016-Aug-28 23:08 UTC. Time now 2016-Aug-30 01:13 UTC.
Position N 34°56' E 139°26'.

Length 267 m; draft 10 m.

Type: Ship (hazmat cat A). MMSI: 353368000.

Date/timePositionNaut miles runAvg speedWind from/ knotsBaromVisibWave heightAir tempDewpointWater temp
2016-Aug-28 23:08N 34°56' E 139°26'1119.5
2016-Aug-28 22:33N 35°03' E 139°37'1515.3
2016-Aug-28 21:33N 35°16' E 139°45'1212.3
2016-Aug-28 20:33N 35°28' E 139°49'9 8.8
2016-Aug-28 19:33N 35°37' E 139°46'0 0.1
2016-Aug-28 18:31N 35°37' E 139°46'0 0.0
2016-Aug-28 17:31N 35°37' E 139°46'0 0.0
2016-Aug-28 16:31N 35°37' E 139°46'0 0.0
2016-Aug-28 15:31N 35°37' E 139°46'0 0.0
2016-Aug-28 14:28N 35°37' E 139°46'0 0.0
2016-Aug-28 13:31N 35°37' E 139°46'0 0.0
2016-Aug-28 12:28N 35°37' E 139°46'0 0.0
2016-Aug-28 11:28N 35°37' E 139°46'0 0.0
2016-Aug-28 10:31N 35°37' E 139°46'0 0.1
2016-Aug-28 09:33N 35°37' E 139°46'7 7.0
2016-Aug-28 08:34N 35°32' E 139°52'1211.5
2016-Aug-28 07:34N 35°22' E 139°45'1111.2
2016-Aug-28 06:34N 35°11' E 139°46'1110.6
2016-Aug-28 05:33N 35°00' E 139°43'1110.7
2016-Aug-28 04:31N 34°50' E 139°48'1111.6
2016-Aug-28 03:33N 34°50' E 140°01'1312.8
2016-Aug-28 02:33N 34°56' E 140°15'1713.9
2016-Aug-28 01:21N 35°04' E 140°33'  
Track history (hours):
 
Tides and Currents Weather Stations Pressure Air Temp Water Temp Dewpoint Dewpoint Depression Visibility Wind Speed Wind Dir Waves Ship Positions

Bangkok Bridge

Last reported at 2016-Aug-28 23:08 UTC. Time now 2016-Aug-30 01:13 UTC.
Position N 34°56' E 139°26'.

Length 267 m; draft 10 m.

Type: Ship (hazmat cat A). MMSI: 353368000.

Date/timePositionNaut miles runAvg speedWind from/ knotsBaromVisibWave heightAir tempDewpointWater temp
2016-Aug-28 23:08N 34°56' E 139°26'1119.5
2016-Aug-28 22:33N 35°03' E 139°37'1515.3
2016-Aug-28 21:33N 35°16' E 139°45'1212.3
2016-Aug-28 20:33N 35°28' E 139°49'9 8.8
2016-Aug-28 19:33N 35°37' E 139°46'0 0.1
2016-Aug-28 18:31N 35°37' E 139°46'0 0.0
2016-Aug-28 17:31N 35°37' E 139°46'0 0.0
2016-Aug-28 16:31N 35°37' E 139°46'0 0.0
2016-Aug-28 15:31N 35°37' E 139°46'0 0.0
2016-Aug-28 14:28N 35°37' E 139°46'0 0.0
2016-Aug-28 13:31N 35°37' E 139°46'0 0.0
2016-Aug-28 12:28N 35°37' E 139°46'0 0.0
2016-Aug-28 11:28N 35°37' E 139°46'0 0.0
2016-Aug-28 10:31N 35°37' E 139°46'0 0.1
2016-Aug-28 09:33N 35°37' E 139°46'7 7.0
2016-Aug-28 08:34N 35°32' E 139°52'1211.5
2016-Aug-28 07:34N 35°22' E 139°45'1111.2
2016-Aug-28 06:34N 35°11' E 139°46'1110.6
2016-Aug-28 05:33N 35°00' E 139°43'1110.7
2016-Aug-28 04:31N 34°50' E 139°48'1111.6
2016-Aug-28 03:33N 34°50' E 140°01'1312.8
2016-Aug-28 02:33N 34°56' E 140°15'1713.9
2016-Aug-28 01:21N 35°04' E 140°33'  

Dump ship's entire track history